sensor_id;sensor_type;location;lat;lon;timestamp;pressure;altitude;pressure_sealevel;temperature;humidity
73267;BME280;61495;53.400;7.608;2022-10-13T00:01:18;101921.13;;;8.68;76.82
73267;BME280;61495;53.400;7.608;2022-10-13T00:03:45;101921.44;;;8.65;77.04
73267;BME280;61495;53.400;7.608;2022-10-13T00:06:13;101916.78;;;8.67;77.26
73267;BME280;61495;53.400;7.608;2022-10-13T00:08:42;101918.63;;;8.66;77.59
73267;BME280;61495;53.400;7.608;2022-10-13T00:11:15;101918.09;;;8.71;77.82
73267;BME280;61495;53.400;7.608;2022-10-13T00:13:41;101918.59;;;8.74;77.42
73267;BME280;61495;53.400;7.608;2022-10-13T00:16:08;101919.78;;;8.72;77.72
73267;BME280;61495;53.400;7.608;2022-10-13T00:18:34;101916.59;;;8.76;77.59
73267;BME280;61495;53.400;7.608;2022-10-13T00:21:00;101918.47;;;8.76;77.26
73267;BME280;61495;53.400;7.608;2022-10-13T00:23:26;101910.44;;;8.76;78.12
73267;BME280;61495;53.400;7.608;2022-10-13T00:25:51;101910.44;;;8.76;77.74
73267;BME280;61495;53.400;7.608;2022-10-13T00:28:18;101921.78;;;8.78;77.52
73267;BME280;61495;53.400;7.608;2022-10-13T00:30:45;101917.44;;;8.77;77.58
73267;BME280;61495;53.400;7.608;2022-10-13T00:33:11;101928.63;;;8.80;77.70
73267;BME280;61495;53.400;7.608;2022-10-13T00:35:42;101914.94;;;8.75;78.94
73267;BME280;61495;53.400;7.608;2022-10-13T00:38:09;101925.13;;;8.80;78.62
73267;BME280;61495;53.400;7.608;2022-10-13T00:40:52;101908.09;;;8.73;77.68
73267;BME280;61495;53.400;7.608;2022-10-13T00:43:22;101910.56;;;8.82;77.80
73267;BME280;61495;53.400;7.608;2022-10-13T00:45:48;101900.75;;;8.75;77.02
73267;BME280;61495;53.400;7.608;2022-10-13T00:48:19;101901.41;;;8.77;78.73
73267;BME280;61495;53.400;7.608;2022-10-13T00:50:47;101898.06;;;8.75;78.17
73267;BME280;61495;53.400;7.608;2022-10-13T00:53:14;101906.25;;;8.81;77.53
73267;BME280;61495;53.400;7.608;2022-10-13T00:55:42;101897.41;;;8.81;77.80
73267;BME280;61495;53.400;7.608;2022-10-13T01:01:17;101894.41;;;8.76;77.79
73267;BME280;61495;53.400;7.608;2022-10-13T01:03:43;101898.06;;;8.83;77.44
73267;BME280;61495;53.400;7.608;2022-10-13T01:06:10;101896.56;;;8.80;79.08
73267;BME280;61495;53.400;7.608;2022-10-13T01:08:37;101890.03;;;8.83;77.73
73267;BME280;61495;53.400;7.608;2022-10-13T01:24:21;101879.34;;;8.83;78.19
73267;BME280;61495;53.400;7.608;2022-10-13T01:34:58;101862.66;;;8.81;79.38
73267;BME280;61495;53.400;7.608;2022-10-13T01:37:32;101863.97;;;8.85;77.87
73267;BME280;61495;53.400;7.608;2022-10-13T01:40:54;101864.50;;;8.80;79.11
73267;BME280;61495;53.400;7.608;2022-10-13T01:43:10;101877.19;;;8.86;78.64
73267;BME280;61495;53.400;7.608;2022-10-13T01:45:47;101872.69;;;8.87;79.62
73267;BME280;61495;53.400;7.608;2022-10-13T01:48:15;101870.66;;;8.89;79.70
73267;BME280;61495;53.400;7.608;2022-10-13T01:50:42;101857.31;;;8.81;78.84
73267;BME280;61495;53.400;7.608;2022-10-13T01:53:09;101844.81;;;8.81;78.90
73267;BME280;61495;53.400;7.608;2022-10-13T01:55:36;101849.81;;;8.84;78.88
73267;BME280;61495;53.400;7.608;2022-10-13T01:58:02;101830.28;;;8.76;79.10
73267;BME280;61495;53.400;7.608;2022-10-13T02:00:32;101831.09;;;8.76;80.01
73267;BME280;61495;53.400;7.608;2022-10-13T02:03:18;101839.13;;;8.84;79.09
73267;BME280;61495;53.400;7.608;2022-10-13T02:06:04;101836.94;;;8.80;79.46
73267;BME280;61495;53.400;7.608;2022-10-13T02:11:16;101836.91;;;8.88;78.29
73267;BME280;61495;53.400;7.608;2022-10-13T02:13:46;101827.25;;;8.87;79.51
73267;BME280;61495;53.400;7.608;2022-10-13T02:16:15;101813.53;;;8.82;78.61
73267;BME280;61495;53.400;7.608;2022-10-13T02:18:42;101819.56;;;8.84;78.09
73267;BME280;61495;53.400;7.608;2022-10-13T02:21:08;101804.53;;;8.83;79.61
73267;BME280;61495;53.400;7.608;2022-10-13T02:23:35;101796.88;;;8.80;77.70
73267;BME280;61495;53.400;7.608;2022-10-13T02:26:01;101803.34;;;8.85;78.36
73267;BME280;61495;53.400;7.608;2022-10-13T02:28:27;101813.03;;;8.86;78.61
73267;BME280;61495;53.400;7.608;2022-10-13T02:30:54;101804.19;;;8.86;78.52
73267;BME280;61495;53.400;7.608;2022-10-13T02:33:20;101810.88;;;8.82;79.02
73267;BME280;61495;53.400;7.608;2022-10-13T02:35:46;101816.56;;;8.87;79.28
73267;BME280;61495;53.400;7.608;2022-10-13T02:38:12;101794.53;;;8.77;78.82
73267;BME280;61495;53.400;7.608;2022-10-13T02:40:39;101812.06;;;8.87;79.07
73267;BME280;61495;53.400;7.608;2022-10-13T02:43:05;101806.56;;;8.81;79.00
73267;BME280;61495;53.400;7.608;2022-10-13T02:45:32;101812.22;;;8.86;78.67
73267;BME280;61495;53.400;7.608;2022-10-13T02:47:58;101804.53;;;8.83;78.62
73267;BME280;61495;53.400;7.608;2022-10-13T02:50:25;101812.22;;;8.86;80.16
73267;BME280;61495;53.400;7.608;2022-10-13T02:52:51;101812.22;;;8.86;79.31
73267;BME280;61495;53.400;7.608;2022-10-13T02:55:17;101809.53;;;8.86;78.99
73267;BME280;61495;53.400;7.608;2022-10-13T02:57:43;101807.06;;;8.84;78.91
73267;BME280;61495;53.400;7.608;2022-10-13T03:00:10;101811.22;;;8.87;79.42
73267;BME280;61495;53.400;7.608;2022-10-13T03:02:36;101796.53;;;8.83;79.54
73267;BME280;61495;53.400;7.608;2022-10-13T03:05:03;101793.00;;;8.82;79.66
73267;BME280;61495;53.400;7.608;2022-10-13T03:07:29;101796.81;;;8.88;79.56
73267;BME280;61495;53.400;7.608;2022-10-13T03:09:55;101786.19;;;8.80;79.69
73267;BME280;61495;53.400;7.608;2022-10-13T03:12:22;101793.50;;;8.86;79.36
73267;BME280;61495;53.400;7.608;2022-10-13T03:14:48;101786.03;;;8.81;79.74
73267;BME280;61495;53.400;7.608;2022-10-13T03:17:15;101792.50;;;8.87;78.89
73267;BME280;61495;53.400;7.608;2022-10-13T03:19:41;101779.66;;;8.82;79.89
73267;BME280;61495;53.400;7.608;2022-10-13T03:22:07;101783.81;;;8.85;80.44
73267;BME280;61495;53.400;7.608;2022-10-13T03:24:34;101775.78;;;8.85;79.93
73267;BME280;61495;53.400;7.608;2022-10-13T03:27:00;101780.78;;;8.88;79.01
73267;BME280;61495;53.400;7.608;2022-10-13T03:29:27;101762.78;;;8.82;79.18
73267;BME280;61495;53.400;7.608;2022-10-13T03:31:53;101755.59;;;8.82;79.06
73267;BME280;61495;53.400;7.608;2022-10-13T03:34:20;101755.09;;;8.79;79.37
73267;BME280;61495;53.400;7.608;2022-10-13T03:36:46;101768.47;;;8.87;79.36
73267;BME280;61495;53.400;7.608;2022-10-13T03:39:12;101775.28;;;8.89;79.38
73267;BME280;61495;53.400;7.608;2022-10-13T03:41:39;101775.94;;;8.91;79.32
73267;BME280;61495;53.400;7.608;2022-10-13T03:44:06;101771.78;;;8.89;80.22
73267;BME280;61495;53.400;7.608;2022-10-13T03:46:32;101764.94;;;8.86;79.16
73267;BME280;61495;53.400;7.608;2022-10-13T03:48:58;101769.75;;;8.91;80.64
73267;BME280;61495;53.400;7.608;2022-10-13T03:51:25;101760.44;;;8.87;80.13
73267;BME280;61495;53.400;7.608;2022-10-13T03:53:52;101771.63;;;8.90;80.21
73267;BME280;61495;53.400;7.608;2022-10-13T03:56:20;101780.44;;;8.91;79.73
73267;BME280;61495;53.400;7.608;2022-10-13T03:58:47;101775.44;;;8.88;79.57
73267;BME280;61495;53.400;7.608;2022-10-13T04:01:18;101779.47;;;8.92;79.43
73267;BME280;61495;53.400;7.608;2022-10-13T04:03:44;101785.78;;;8.91;80.05
73267;BME280;61495;53.400;7.608;2022-10-13T04:06:10;101779.66;;;8.90;80.49
73267;BME280;61495;53.400;7.608;2022-10-13T04:08:37;101782.13;;;8.92;79.52
73267;BME280;61495;53.400;7.608;2022-10-13T04:11:05;101767.63;;;8.86;80.00
73267;BME280;61495;53.400;7.608;2022-10-13T04:13:33;101760.44;;;8.87;80.35
73267;BME280;61495;53.400;7.608;2022-10-13T04:16:03;101767.44;;;8.88;80.53
73267;BME280;61495;53.400;7.608;2022-10-13T04:18:32;101762.78;;;8.90;79.17
73267;BME280;61495;53.400;7.608;2022-10-13T04:20:59;101767.78;;;8.93;79.63
73267;BME280;61495;53.400;7.608;2022-10-13T04:23:25;101763.75;;;8.89;79.76
73267;BME280;61495;53.400;7.608;2022-10-13T04:25:51;101762.28;;;8.86;80.46
73267;BME280;61495;53.400;7.608;2022-10-13T04:28:18;101759.06;;;8.91;80.15
73267;BME280;61495;53.400;7.608;2022-10-13T04:30:44;101744.75;;;8.84;79.56
73267;BME280;61495;53.400;7.608;2022-10-13T04:33:10;101759.91;;;8.91;79.88
73267;BME280;61495;53.400;7.608;2022-10-13T04:35:41;101761.59;;;8.92;81.04
73267;BME280;61495;53.400;7.608;2022-10-13T04:38:07;101748.09;;;8.86;79.41
73267;BME280;61495;53.400;7.608;2022-10-13T04:40:33;101751.25;;;8.89;81.08
73267;BME280;61495;53.400;7.608;2022-10-13T04:43:00;101737.25;;;8.79;80.88
73267;BME280;61495;53.400;7.608;2022-10-13T04:45:26;101753.72;;;8.91;80.45
73267;BME280;61495;53.400;7.608;2022-10-13T04:47:53;101736.75;;;8.84;81.45
73267;BME280;61495;53.400;7.608;2022-10-13T04:50:19;101743.03;;;8.91;79.81
73267;BME280;61495;53.400;7.608;2022-10-13T04:52:45;101737.69;;;8.91;79.61
73267;BME280;61495;53.400;7.608;2022-10-13T04:55:11;101733.03;;;8.85;79.36
73267;BME280;61495;53.400;7.608;2022-10-13T04:57:38;101742.22;;;8.90;79.92
73267;BME280;61495;53.400;7.608;2022-10-13T05:00:04;101736.41;;;8.87;80.84
73267;BME280;61495;53.400;7.608;2022-10-13T05:02:34;101737.69;;;8.91;80.98
73267;BME280;61495;53.400;7.608;2022-10-13T05:05:00;101729.69;;;8.91;81.11
73267;BME280;61495;53.400;7.608;2022-10-13T05:07:26;101712.00;;;8.82;80.41
73267;BME280;61495;53.400;7.608;2022-10-13T05:09:53;101729.53;;;8.92;79.96
73267;BME280;61495;53.400;7.608;2022-10-13T05:12:19;101724.19;;;8.92;80.00
73267;BME280;61495;53.400;7.608;2022-10-13T05:14:45;101721.66;;;8.91;80.29
73267;BME280;61495;53.400;7.608;2022-10-13T05:17:11;101711.66;;;8.85;80.56
73267;BME280;61495;53.400;7.608;2022-10-13T05:19:37;101713.34;;;8.86;80.54
73267;BME280;61495;53.400;7.608;2022-10-13T05:22:03;101725.00;;;8.93;80.38
73267;BME280;61495;53.400;7.608;2022-10-13T05:24:28;101722.00;;;8.88;80.10
73267;BME280;61495;53.400;7.608;2022-10-13T05:27:10;101723.69;;;8.89;80.30
73267;BME280;61495;53.400;7.608;2022-10-13T05:29:37;101719.19;;;8.89;81.09
73267;BME280;61495;53.400;7.608;2022-10-13T05:32:03;101715.97;;;8.94;80.58
73267;BME280;61495;53.400;7.608;2022-10-13T05:34:29;101718.63;;;8.94;80.26
73267;BME280;61495;53.400;7.608;2022-10-13T05:36:57;101717.66;;;8.95;81.06
73267;BME280;61495;53.400;7.608;2022-10-13T05:39:22;101710.31;;;8.89;80.00
73267;BME280;61495;53.400;7.608;2022-10-13T05:41:48;101708.97;;;8.93;80.09
73267;BME280;61495;53.400;7.608;2022-10-13T05:44:14;101713.97;;;8.96;80.82
73267;BME280;61495;53.400;7.608;2022-10-13T05:46:42;101704.47;;;8.93;81.25
73267;BME280;61495;53.400;7.608;2022-10-13T05:49:07;101700.63;;;8.88;80.38
73267;BME280;61495;53.400;7.608;2022-10-13T05:51:56;101702.78;;;8.92;82.20
73267;BME280;61495;53.400;7.608;2022-10-13T05:54:33;101689.59;;;8.91;81.62
73267;BME280;61495;53.400;7.608;2022-10-13T05:57:03;101689.25;;;8.94;80.63
73267;BME280;61495;53.400;7.608;2022-10-13T05:59:57;101695.91;;;8.98;81.98
73267;BME280;61495;53.400;7.608;2022-10-13T06:02:26;101696.25;;;8.95;81.99
73267;BME280;61495;53.400;7.608;2022-10-13T06:04:55;101697.59;;;8.99;81.18
73267;BME280;61495;53.400;7.608;2022-10-13T06:07:22;101700.91;;;9.01;81.14
73267;BME280;61495;53.400;7.608;2022-10-13T06:09:48;101681.41;;;8.92;82.61
73267;BME280;61495;53.400;7.608;2022-10-13T06:12:14;101684.75;;;8.94;81.39
73267;BME280;61495;53.400;7.608;2022-10-13T06:14:40;101690.06;;;9.03;81.15
73267;BME280;61495;53.400;7.608;2022-10-13T06:17:06;101689.22;;;9.02;81.27
73267;BME280;61495;53.400;7.608;2022-10-13T06:19:32;101689.22;;;9.02;83.73
73267;BME280;61495;53.400;7.608;2022-10-13T06:21:58;101688.19;;;9.03;81.99
73267;BME280;61495;53.400;7.608;2022-10-13T06:24:23;101691.22;;;9.00;82.33
73267;BME280;61495;53.400;7.608;2022-10-13T06:26:50;101690.56;;;8.98;83.21
73267;BME280;61495;53.400;7.608;2022-10-13T06:29:15;101698.94;;;8.95;82.19
73267;BME280;61495;53.400;7.608;2022-10-13T06:31:41;101713.28;;;9.02;83.76
73267;BME280;61495;53.400;7.608;2022-10-13T06:34:07;101712.75;;;9.07;82.23
73267;BME280;61495;53.400;7.608;2022-10-13T06:36:32;101709.22;;;9.06;83.49
73267;BME280;61495;53.400;7.608;2022-10-13T06:38:58;101708.22;;;9.07;82.41
73267;BME280;61495;53.400;7.608;2022-10-13T06:41:24;101694.88;;;9.07;82.44
73267;BME280;61495;53.400;7.608;2022-10-13T06:43:50;101669.19;;;8.98;82.80
73267;BME280;61495;53.400;7.608;2022-10-13T06:46:16;101693.69;;;9.10;84.50
73267;BME280;61495;53.400;7.608;2022-10-13T06:48:42;101686.06;;;8.99;83.04
73267;BME280;61495;53.400;7.608;2022-10-13T06:51:10;101704.22;;;9.11;83.59
73267;BME280;61495;53.400;7.608;2022-10-13T06:53:36;101688.53;;;9.00;85.23
73267;BME280;61495;53.400;7.608;2022-10-13T06:56:04;101702.19;;;9.13;82.89
73267;BME280;61495;53.400;7.608;2022-10-13T06:58:30;101698.66;;;9.13;83.25
73267;BME280;61495;53.400;7.608;2022-10-13T07:00:56;101670.16;;;9.05;84.32
73267;BME280;61495;53.400;7.608;2022-10-13T07:03:22;101678.41;;;9.18;84.14
73267;BME280;61495;53.400;7.608;2022-10-13T07:05:49;101678.13;;;9.13;82.86
73267;BME280;61495;53.400;7.608;2022-10-13T07:08:15;101676.44;;;9.12;83.18
73267;BME280;61495;53.400;7.608;2022-10-13T07:10:41;101696.63;;;9.23;84.89
73267;BME280;61495;53.400;7.608;2022-10-13T07:13:07;101687.13;;;9.20;84.47
73267;BME280;61495;53.400;7.608;2022-10-13T07:15:33;101674.09;;;9.17;85.16
73267;BME280;61495;53.400;7.608;2022-10-13T07:18:01;101677.72;;;9.24;85.43
73267;BME280;61495;53.400;7.608;2022-10-13T07:20:26;101672.34;;;9.24;85.19
73267;BME280;61495;53.400;7.608;2022-10-13T07:22:52;101668.41;;;9.20;83.93
73267;BME280;61495;53.400;7.608;2022-10-13T07:25:18;101688.34;;;9.32;83.18
73267;BME280;61495;53.400;7.608;2022-10-13T07:27:44;101671.16;;;9.27;83.34
73267;BME280;61495;53.400;7.608;2022-10-13T07:30:11;101673.97;;;9.33;84.18
73267;BME280;61495;53.400;7.608;2022-10-13T07:32:38;101683.97;;;9.39;84.75
73267;BME280;61495;53.400;7.608;2022-10-13T07:35:09;101667.78;;;9.33;85.84
73267;BME280;61495;53.400;7.608;2022-10-13T07:37:37;101671.22;;;9.41;83.89
73267;BME280;61495;53.400;7.608;2022-10-13T07:40:04;101662.19;;;9.42;84.03
73267;BME280;61495;53.400;7.608;2022-10-13T07:42:30;101658.34;;;9.45;83.49
73267;BME280;61495;53.400;7.608;2022-10-13T07:44:56;101657.84;;;9.41;84.53
73267;BME280;61495;53.400;7.608;2022-10-13T07:47:22;101675.16;;;9.54;84.08
73267;BME280;61495;53.400;7.608;2022-10-13T07:49:48;101654.59;;;9.54;84.46
73267;BME280;61495;53.400;7.608;2022-10-13T07:52:14;101654.94;;;9.51;85.77
73267;BME280;61495;53.400;7.608;2022-10-13T07:54:39;101670.88;;;9.67;85.23
73267;BME280;61495;53.400;7.608;2022-10-13T07:57:05;101667.63;;;9.72;86.12
73267;BME280;61495;53.400;7.608;2022-10-13T07:59:31;101665.63;;;9.74;85.62
73267;BME280;61495;53.400;7.608;2022-10-13T08:01:58;101653.25;;;9.73;84.96
73267;BME280;61495;53.400;7.608;2022-10-13T08:04:31;101653.81;;;9.83;85.27
73267;BME280;61495;53.400;7.608;2022-10-13T08:06:57;101633.81;;;9.79;85.47
73267;BME280;61495;53.400;7.608;2022-10-13T08:09:23;101649.88;;;9.93;87.02
73267;BME280;61495;53.400;7.608;2022-10-13T08:11:53;101650.63;;;10.02;85.43
73267;BME280;61495;53.400;7.608;2022-10-13T08:14:19;101642.97;;;9.99;86.18
73267;BME280;61495;53.400;7.608;2022-10-13T08:16:45;101645.28;;;10.02;86.08
73267;BME280;61495;53.400;7.608;2022-10-13T08:19:12;101648.88;;;10.09;87.00
73267;BME280;61495;53.400;7.608;2022-10-13T08:21:38;101663.06;;;10.18;85.88
73267;BME280;61495;53.400;7.608;2022-10-13T08:24:05;101663.16;;;10.24;86.06
73267;BME280;61495;53.400;7.608;2022-10-13T08:26:31;101646.16;;;10.17;86.31
73267;BME280;61495;53.400;7.608;2022-10-13T08:28:57;101661.94;;;10.27;86.81
73267;BME280;61495;53.400;7.608;2022-10-13T08:31:23;101650.88;;;10.30;86.28
73267;BME280;61495;53.400;7.608;2022-10-13T08:33:49;101651.34;;;10.33;86.10
73267;BME280;61495;53.400;7.608;2022-10-13T08:36:16;101650.41;;;10.41;87.46
73267;BME280;61495;53.400;7.608;2022-10-13T08:38:43;101637.84;;;10.41;86.09
73267;BME280;61495;53.400;7.608;2022-10-13T08:41:29;101643.72;;;10.51;87.20
73267;BME280;61495;53.400;7.608;2022-10-13T08:44:31;101639.03;;;10.53;87.63
73267;BME280;61495;53.400;7.608;2022-10-13T08:47:04;101661.66;;;10.66;86.24
73267;BME280;61495;53.400;7.608;2022-10-13T08:49:32;101647.59;;;10.64;86.48
73267;BME280;61495;53.400;7.608;2022-10-13T08:52:02;101667.91;;;10.73;87.25
73267;BME280;61495;53.400;7.608;2022-10-13T08:54:29;101659.22;;;10.71;86.46
73267;BME280;61495;53.400;7.608;2022-10-13T08:56:55;101651.44;;;10.76;86.87
73267;BME280;61495;53.400;7.608;2022-10-13T08:59:20;101650.31;;;10.85;86.54
73267;BME280;61495;53.400;7.608;2022-10-13T09:01:52;101636.66;;;10.80;87.27
73267;BME280;61495;53.400;7.608;2022-10-13T09:04:26;101647.53;;;10.93;86.54
73267;BME280;61495;53.400;7.608;2022-10-13T09:06:57;101637.63;;;10.93;86.44
73267;BME280;61495;53.400;7.608;2022-10-13T09:09:26;101645.56;;;11.01;86.26
73267;BME280;61495;53.400;7.608;2022-10-13T09:11:52;101631.06;;;10.96;86.03
73267;BME280;61495;53.400;7.608;2022-10-13T09:14:22;101634.84;;;11.01;86.70
73267;BME280;61495;53.400;7.608;2022-10-13T09:16:49;101634.09;;;11.07;86.05
73267;BME280;61495;53.400;7.608;2022-10-13T09:19:26;101645.69;;;11.14;86.08
73267;BME280;61495;53.400;7.608;2022-10-13T09:21:57;101642.00;;;11.15;85.94
73267;BME280;61495;53.400;7.608;2022-10-13T09:24:24;101627.13;;;11.13;85.82
73267;BME280;61495;53.400;7.608;2022-10-13T09:27:04;101629.16;;;11.11;86.74
73267;BME280;61495;53.400;7.608;2022-10-13T09:29:30;101620.94;;;11.12;86.00
73267;BME280;61495;53.400;7.608;2022-10-13T09:32:18;101629.22;;;11.18;86.63
73267;BME280;61495;53.400;7.608;2022-10-13T09:34:45;101627.84;;;11.22;86.40
73267;BME280;61495;53.400;7.608;2022-10-13T09:37:24;101636.97;;;11.27;87.14
73267;BME280;61495;53.400;7.608;2022-10-13T09:40:19;101618.56;;;11.24;86.58
73267;BME280;61495;53.400;7.608;2022-10-13T09:42:50;101637.88;;;11.34;85.99
73267;BME280;61495;53.400;7.608;2022-10-13T09:45:19;101622.41;;;11.36;86.03
73267;BME280;61495;53.400;7.608;2022-10-13T09:47:55;101637.34;;;11.45;85.96
73267;BME280;61495;53.400;7.608;2022-10-13T09:50:27;101624.94;;;11.44;85.77
73267;BME280;61495;53.400;7.608;2022-10-13T09:53:10;101630.38;;;11.51;86.56
73267;BME280;61495;53.400;7.608;2022-10-13T09:55:40;101627.53;;;11.59;85.67
73267;BME280;61495;53.400;7.608;2022-10-13T09:58:27;101630.06;;;11.67;86.14
73267;BME280;61495;53.400;7.608;2022-10-13T10:00:56;101633.13;;;11.79;85.41
73267;BME280;61495;53.400;7.608;2022-10-13T10:03:33;101646.63;;;11.92;86.27
73267;BME280;61495;53.400;7.608;2022-10-13T10:06:02;101639.44;;;11.99;86.50
73267;BME280;61495;53.400;7.608;2022-10-13T10:08:50;101641.59;;;12.10;86.69
73267;BME280;61495;53.400;7.608;2022-10-13T10:11:21;101641.59;;;12.10;86.85
73267;BME280;61495;53.400;7.608;2022-10-13T10:13:49;101641.03;;;12.21;86.15
73267;BME280;61495;53.400;7.608;2022-10-13T10:24:26;101645.06;;;12.38;84.87
73267;BME280;61495;53.400;7.608;2022-10-13T10:26:57;101639.44;;;12.33;84.72
73267;BME280;61495;53.400;7.608;2022-10-13T10:29:35;101630.13;;;12.29;85.22
73267;BME280;61495;53.400;7.608;2022-10-13T10:45:36;101620.19;;;12.30;85.36
73267;BME280;61495;53.400;7.608;2022-10-13T10:48:13;101614.81;;;12.30;85.59
73267;BME280;61495;53.400;7.608;2022-10-13T10:50:42;101611.34;;;12.29;85.38
73267;BME280;61495;53.400;7.608;2022-10-13T10:53:17;101612.81;;;12.38;85.49
73267;BME280;61495;53.400;7.608;2022-10-13T10:56:11;101608.66;;;12.29;86.54
73267;BME280;61495;53.400;7.608;2022-10-13T10:58:48;101613.84;;;12.37;86.25
73267;BME280;61495;53.400;7.608;2022-10-13T11:01:43;101609.09;;;12.39;87.26
73267;BME280;61495;53.400;7.608;2022-10-13T11:04:32;101619.03;;;12.45;86.57
73267;BME280;61495;53.400;7.608;2022-10-13T11:07:00;101612.41;;;12.41;86.47
73267;BME280;61495;53.400;7.608;2022-10-13T11:15:10;101607.50;;;12.51;86.70
73267;BME280;61495;53.400;7.608;2022-10-13T11:17:41;101596.53;;;12.46;86.97
73267;BME280;61495;53.400;7.608;2022-10-13T11:25:42;101596.34;;;12.54;87.11
73267;BME280;61495;53.400;7.608;2022-10-13T11:30:48;101578.53;;;12.53;87.10
73267;BME280;61495;53.400;7.608;2022-10-13T11:33:35;101584.34;;;12.57;86.75
73267;BME280;61495;53.400;7.608;2022-10-13T11:36:38;101587.69;;;12.65;87.63
73267;BME280;61495;53.400;7.608;2022-10-13T11:47:44;101581.31;;;12.86;88.50
73267;BME280;61495;53.400;7.608;2022-10-13T11:53:18;101571.66;;;12.92;87.78
73267;BME280;61495;53.400;7.608;2022-10-13T11:55:54;101567.91;;;12.93;87.58
73267;BME280;61495;53.400;7.608;2022-10-13T11:58:22;101570.81;;;12.98;88.24
73267;BME280;61495;53.400;7.608;2022-10-13T12:01:01;101578.69;;;12.99;87.92
73267;BME280;61495;53.400;7.608;2022-10-13T12:03:39;101560.69;;;13.00;88.04
73267;BME280;61495;53.400;7.608;2022-10-13T12:06:13;101577.03;;;13.05;87.70
73267;BME280;61495;53.400;7.608;2022-10-13T12:08:50;101576.00;;;13.06;88.21
73267;BME280;61495;53.400;7.608;2022-10-13T12:11:28;101561.72;;;12.99;88.20
73267;BME280;61495;53.400;7.608;2022-10-13T12:13:55;101561.09;;;12.97;87.29
73267;BME280;61495;53.400;7.608;2022-10-13T12:16:21;101567.50;;;13.02;87.51
73267;BME280;61495;53.400;7.608;2022-10-13T12:18:47;101568.34;;;13.03;87.95
73267;BME280;61495;53.400;7.608;2022-10-13T12:21:21;101549.69;;;12.95;87.90
73267;BME280;61495;53.400;7.608;2022-10-13T12:23:50;101567.50;;;13.02;87.92
73267;BME280;61495;53.400;7.608;2022-10-13T12:26:22;101556.72;;;12.96;87.45
73267;BME280;61495;53.400;7.608;2022-10-13T12:28:58;101564.41;;;12.99;87.54
73267;BME280;61495;53.400;7.608;2022-10-13T12:31:43;101564.81;;;12.96;87.01
73267;BME280;61495;53.400;7.608;2022-10-13T12:34:27;101560.25;;;12.96;87.90
73267;BME280;61495;53.400;7.608;2022-10-13T12:36:58;101555.50;;;12.92;88.01
73267;BME280;61495;53.400;7.608;2022-10-13T12:39:27;101549.47;;;12.90;87.92
73267;BME280;61495;53.400;7.608;2022-10-13T12:41:57;101547.63;;;12.90;88.79
73267;BME280;61495;53.400;7.608;2022-10-13T12:44:26;101555.91;;;12.95;88.35
73267;BME280;61495;53.400;7.608;2022-10-13T12:46:55;101556.72;;;12.96;88.57
73267;BME280;61495;53.400;7.608;2022-10-13T12:49:27;101540.41;;;12.91;88.99
73267;BME280;61495;53.400;7.608;2022-10-13T12:52:11;101544.31;;;12.95;89.28
73267;BME280;61495;53.400;7.608;2022-10-13T12:54:46;101541.22;;;12.91;89.17
73267;BME280;61495;53.400;7.608;2022-10-13T12:57:21;101545.16;;;12.95;89.34
73267;BME280;61495;53.400;7.608;2022-10-13T12:59:50;101544.72;;;12.98;89.24
73267;BME280;61495;53.400;7.608;2022-10-13T13:02:24;101549.28;;;12.98;88.95
73267;BME280;61495;53.400;7.608;2022-10-13T13:04:50;101542.69;;;13.00;88.85
73267;BME280;61495;53.400;7.608;2022-10-13T13:07:35;101557.19;;;13.06;89.73
73267;BME280;61495;53.400;7.608;2022-10-13T13:12:34;101551.16;;;13.04;88.21
73267;BME280;61495;53.400;7.608;2022-10-13T13:15:35;101558.44;;;13.10;89.58
73267;BME280;61495;53.400;7.608;2022-10-13T13:18:21;101558.25;;;13.11;89.26
73267;BME280;61495;53.400;7.608;2022-10-13T13:20:47;101546.88;;;13.09;89.21
73267;BME280;61495;53.400;7.608;2022-10-13T13:23:13;101535.00;;;13.04;88.91
73267;BME280;61495;53.400;7.608;2022-10-13T13:25:43;101536.91;;;13.10;88.77
73267;BME280;61495;53.400;7.608;2022-10-13T13:28:11;101544.78;;;13.11;88.84
73267;BME280;61495;53.400;7.608;2022-10-13T13:30:37;101538.16;;;13.14;88.71
73267;BME280;61495;53.400;7.608;2022-10-13T13:33:03;101532.75;;;13.07;89.42
73267;BME280;61495;53.400;7.608;2022-10-13T13:35:28;101548.09;;;13.20;88.69
73267;BME280;61495;53.400;7.608;2022-10-13T13:37:54;101531.94;;;13.13;88.81
73267;BME280;61495;53.400;7.608;2022-10-13T13:40:35;101530.09;;;13.14;89.05
73267;BME280;61495;53.400;7.608;2022-10-13T13:43:01;101543.97;;;13.24;89.47
73267;BME280;61495;53.400;7.608;2022-10-13T13:45:26;101545.41;;;13.20;89.60
73267;BME280;61495;53.400;7.608;2022-10-13T13:47:53;101542.50;;;13.21;89.38
73267;BME280;61495;53.400;7.608;2022-10-13T13:50:33;101541.47;;;13.22;89.28
73267;BME280;61495;53.400;7.608;2022-10-13T13:53:00;101544.16;;;13.22;89.06
73267;BME280;61495;53.400;7.608;2022-10-13T13:55:26;101548.72;;;13.28;88.51
73267;BME280;61495;53.400;7.608;2022-10-13T13:57:52;101547.28;;;13.26;88.82
73267;BME280;61495;53.400;7.608;2022-10-13T14:00:18;101538.19;;;13.27;89.12
73267;BME280;61495;53.400;7.608;2022-10-13T14:02:44;101527.84;;;13.24;88.67
73267;BME280;61495;53.400;7.608;2022-10-13T14:05:11;101531.53;;;13.23;89.28
73267;BME280;61495;53.400;7.608;2022-10-13T14:07:37;101525.31;;;13.22;89.04
73267;BME280;61495;53.400;7.608;2022-10-13T14:10:04;101536.09;;;13.29;88.93
73267;BME280;61495;53.400;7.608;2022-10-13T14:12:30;101529.47;;;13.25;89.19
73267;BME280;61495;53.400;7.608;2022-10-13T14:14:56;101514.16;;;13.25;89.83
73267;BME280;61495;53.400;7.608;2022-10-13T14:17:23;101524.91;;;13.32;88.97
73267;BME280;61495;53.400;7.608;2022-10-13T14:19:49;101524.91;;;13.32;88.79
73267;BME280;61495;53.400;7.608;2022-10-13T14:22:15;101517.44;;;13.34;89.10
73267;BME280;61495;53.400;7.608;2022-10-13T14:24:41;101511.03;;;13.28;89.68